Time;durP1;ratioP1;P1;durP2;ratioP2;P2;SDS_P1;SDS_P2;PMS_P1;PMS_P2;Temp;Humidity;BMP_temperature;BMP_pressure;BME280_temperature;BME280_humidity;BME280_pressure;Samples;Min_cycle;Max_cycle;Signal;HPM_P1;HPM_P2
2024/03/28 00:01:34;;;;;;;33.70;25.90;;;23.10;46.30;;;;;;5075952;28;20222;-64
2024/03/28 00:04:00;;;;;;;34.63;25.60;;;23.10;46.30;;;;;;5084995;28;20020;-64
2024/03/28 00:06:25;;;;;;;33.10;24.83;;;23.10;46.30;;;;;;5087825;28;20039;-64
2024/03/28 00:08:51;;;;;;;33.03;25.17;;;23.10;46.20;;;;;;5086519;28;20056;-63
2024/03/28 00:11:16;;;;;;;32.63;23.85;;;23.20;46.30;;;;;;5090139;28;20123;-63
2024/03/28 00:13:42;;;;;;;33.40;24.33;;;23.10;46.30;;;;;;5086430;28;20063;-64
2024/03/28 00:16:08;;;;;;;32.15;23.90;;;23.10;46.70;;;;;;5086271;28;20029;-61
2024/03/28 00:18:33;;;;;;;31.15;23.73;;;23.10;46.30;;;;;;5084989;28;20024;-64
2024/03/28 00:21:00;;;;;;;29.45;21.80;;;23.10;46.20;;;;;;5085023;28;20039;-64
2024/03/28 00:23:26;;;;;;;30.48;23.17;;;23.20;46.30;;;;;;5084311;28;20040;-64
2024/03/28 00:25:54;;;;;;;33.20;24.38;;;23.10;46.20;;;;;;5088127;28;20044;-64
2024/03/28 00:28:20;;;;;;;31.13;23.48;;;23.20;46.30;;;;;;5084101;28;20024;-64
2024/03/28 00:30:47;;;;;;;30.52;22.88;;;23.10;46.20;;;;;;5085645;28;20031;-64
2024/03/28 00:33:13;;;;;;;29.52;22.13;;;23.20;46.30;;;;;;5085625;28;20060;-64
2024/03/28 00:35:47;;;;;;;30.23;22.85;;;23.20;46.30;;;;;;5088239;28;20035;-64
2024/03/28 00:38:13;;;;;;;30.08;22.33;;;23.20;46.70;;;;;;5083295;28;20024;-64
2024/03/28 00:40:52;;;;;;;29.88;21.95;;;23.20;46.20;;;;;;5087647;28;20051;-64
2024/03/28 00:43:19;;;;;;;29.48;23.15;;;23.20;46.20;;;;;;5084933;28;20024;-64
2024/03/28 00:45:45;;;;;;;31.05;23.73;;;23.20;46.20;;;;;;5088680;28;20039;-64
2024/03/28 00:48:11;;;;;;;28.15;21.52;;;23.20;46.10;;;;;;5086519;28;20190;-63
2024/03/28 00:50:37;;;;;;;27.92;21.27;;;23.20;46.10;;;;;;5087541;28;20021;-64
2024/03/28 00:53:04;;;;;;;27.75;21.45;;;23.20;46.10;;;;;;5085027;28;20484;-63
2024/03/28 00:55:30;;;;;;;27.08;20.45;;;23.20;46.10;;;;;;5085936;28;20028;-63
2024/03/28 00:57:56;;;;;;;27.25;20.63;;;23.20;46.10;;;;;;5085254;28;20327;-63
2024/03/28 01:00:21;;;;;;;27.45;19.73;;;23.20;46.10;;;;;;5086167;28;20126;-64
2024/03/28 01:02:47;;;;;;;26.15;19.90;;;23.20;46.10;;;;;;5087883;28;20031;-64
2024/03/28 01:05:14;;;;;;;27.15;19.73;;;23.20;46.10;;;;;;5056143;28;20021;-64
2024/03/28 01:07:39;;;;;;;26.77;20.25;;;23.20;46.10;;;;;;5074266;28;20024;-63
2024/03/28 01:10:06;;;;;;;27.00;19.73;;;23.20;46.00;;;;;;5078751;28;20054;-64
2024/03/28 01:12:31;;;;;;;27.83;20.08;;;23.20;46.10;;;;;;5072774;28;20016;-64
2024/03/28 01:14:57;;;;;;;23.48;18.05;;;23.20;46.10;;;;;;5060237;28;20029;-64
2024/03/28 01:17:23;;;;;;;25.08;18.92;;;23.20;46.20;;;;;;5070030;28;20031;-64
2024/03/28 01:19:50;;;;;;;23.80;18.05;;;23.20;46.20;;;;;;5069510;28;20496;-64
2024/03/28 01:22:16;;;;;;;22.40;17.17;;;23.20;46.20;;;;;;5070042;28;20119;-63
2024/03/28 01:24:41;;;;;;;21.50;16.48;;;23.20;46.20;;;;;;5070018;28;20484;-63
2024/03/28 01:27:07;;;;;;;21.45;16.25;;;23.20;46.20;;;;;;5069670;28;20078;-62
2024/03/28 01:29:33;;;;;;;20.63;15.25;;;23.20;46.20;;;;;;5068544;28;20021;-63
2024/03/28 01:31:59;;;;;;;18.75;14.50;;;23.20;46.20;;;;;;5069521;28;20041;-64
2024/03/28 01:34:26;;;;;;;20.80;14.90;;;23.20;46.20;;;;;;5067921;28;20430;-64
2024/03/28 01:36:52;;;;;;;19.30;14.82;;;23.10;46.20;;;;;;5069619;28;20029;-64
2024/03/28 01:39:18;;;;;;;19.80;14.73;;;23.10;46.20;;;;;;5050932;28;20020;-64
2024/03/28 01:41:51;;;;;;;20.50;14.68;;;23.10;46.70;;;;;;5069570;28;20101;-64
2024/03/28 01:44:19;;;;;;;19.80;15.02;;;23.10;46.20;;;;;;5068416;28;20016;-65
2024/03/28 01:46:45;;;;;;;19.60;14.98;;;23.00;46.20;;;;;;5069169;28;20032;-64
2024/03/28 01:49:13;;;;;;;20.55;14.90;;;23.00;46.10;;;;;;5069046;28;20021;-64
2024/03/28 01:51:39;;;;;;;21.20;16.05;;;23.00;46.20;;;;;;5069408;28;20025;-64
2024/03/28 01:54:06;;;;;;;20.70;15.82;;;23.00;46.20;;;;;;5069221;28;20032;-64
2024/03/28 01:56:34;;;;;;;19.55;14.82;;;23.00;46.20;;;;;;5069398;28;20098;-64
2024/03/28 01:59:00;;;;;;;18.40;13.77;;;23.00;46.20;;;;;;5067947;28;20392;-64
2024/03/28 02:01:26;;;;;;;18.63;14.30;;;23.00;46.20;;;;;;5069135;28;20052;-64
2024/03/28 02:03:52;;;;;;;16.85;12.77;;;23.00;46.20;;;;;;5068841;28;20032;-64
2024/03/28 02:06:17;;;;;;;15.95;13.23;;;22.90;46.20;;;;;;5069167;28;20036;-64
2024/03/28 02:08:43;;;;;;;17.67;13.55;;;22.90;46.20;;;;;;5069057;28;20111;-63
2024/03/28 02:11:09;;;;;;;19.50;14.48;;;22.90;46.30;;;;;;5069401;28;20778;-63
2024/03/28 02:13:34;;;;;;;18.33;13.80;;;22.90;46.30;;;;;;5067760;28;20032;-64
2024/03/28 02:16:00;;;;;;;18.02;13.43;;;22.90;46.30;;;;;;5068976;28;20024;-64
2024/03/28 02:18:25;;;;;;;16.92;12.77;;;22.90;46.30;;;;;;5068614;28;20388;-64
2024/03/28 02:20:51;;;;;;;16.13;12.57;;;22.80;46.20;;;;;;5069364;28;20082;-64
2024/03/28 02:23:18;;;;;;;16.33;12.45;;;22.80;46.20;;;;;;5068999;28;20119;-64
2024/03/28 02:25:47;;;;;;;16.10;12.60;;;22.80;46.30;;;;;;5069242;28;20028;-64
2024/03/28 02:28:13;;;;;;;17.25;13.00;;;22.80;46.30;;;;;;5067116;28;20035;-64
2024/03/28 02:30:42;;;;;;;16.27;12.15;;;22.80;46.40;;;;;;5068816;28;20028;-64
2024/03/28 02:33:07;;;;;;;16.53;11.60;;;22.70;46.40;;;;;;5068838;28;20029;-64
2024/03/28 02:35:33;;;;;;;15.50;11.55;;;22.70;46.40;;;;;;5068635;28;20308;-64
2024/03/28 02:37:59;;;;;;;16.38;11.88;;;22.70;46.40;;;;;;5068963;28;20142;-64
2024/03/28 02:40:25;;;;;;;14.20;11.02;;;22.70;46.40;;;;;;5069058;28;20095;-64
2024/03/28 02:42:51;;;;;;;15.38;11.65;;;22.70;46.40;;;;;;5067738;28;20024;-64
2024/03/28 02:45:17;;;;;;;15.07;11.50;;;22.70;47.00;;;;;;5067930;28;20381;-63
2024/03/28 02:47:43;;;;;;;13.20;10.55;;;22.60;46.40;;;;;;5068605;28;20518;-63
2024/03/28 02:50:09;;;;;;;14.15;10.57;;;22.60;46.40;;;;;;5068082;28;20024;-64
2024/03/28 02:52:36;;;;;;;12.25;10.00;;;22.60;46.50;;;;;;5070826;28;20051;-64
2024/03/28 02:55:02;;;;;;;13.38;10.70;;;22.60;46.50;;;;;;5072342;28;20427;-64
2024/03/28 02:57:28;;;;;;;13.77;10.45;;;22.60;46.50;;;;;;5072707;28;20427;-64
2024/03/28 02:59:53;;;;;;;14.40;10.75;;;22.60;46.50;;;;;;5071387;28;20033;-63
2024/03/28 03:02:19;;;;;;;13.35;10.18;;;22.60;46.50;;;;;;5072917;28;20484;-64
2024/03/28 03:04:45;;;;;;;13.75;10.68;;;22.60;46.50;;;;;;5072262;28;20352;-64
2024/03/28 03:07:10;;;;;;;13.60;10.07;;;22.50;46.50;;;;;;5072332;28;20032;-64
2024/03/28 03:09:36;;;;;;;13.20;10.45;;;22.50;46.60;;;;;;5054200;28;20081;-63
2024/03/28 03:12:02;;;;;;;14.70;10.82;;;22.50;46.50;;;;;;5072411;28;20029;-64
2024/03/28 03:14:29;;;;;;;13.75;10.20;;;22.50;46.60;;;;;;5070704;28;20392;-64
2024/03/28 03:16:55;;;;;;;13.07;9.90;;;22.40;46.60;;;;;;5072371;28;20047;-64
2024/03/28 03:19:22;;;;;;;13.27;10.27;;;22.40;46.60;;;;;;5071802;28;20021;-63
2024/03/28 03:21:49;;;;;;;13.80;10.35;;;22.40;46.60;;;;;;5072131;28;20086;-64
2024/03/28 03:24:15;;;;;;;13.18;10.00;;;22.40;46.60;;;;;;5072245;28;20032;-63
2024/03/28 03:26:49;;;;;;;12.95;10.10;;;22.40;46.60;;;;;;5072301;28;20029;-64
2024/03/28 03:34:51;;;;;;;11.93;9.48;;;22.30;46.70;;;;;;5072100;28;20035;-63
2024/03/28 03:37:22;;;;;;;11.98;9.25;;;22.30;46.70;;;;;;5072001;28;20025;-64
2024/03/28 03:39:53;;;;;;;12.70;9.93;;;22.30;46.70;;;;;;5071835;28;20982;-64
2024/03/28 03:42:19;;;;;;;11.77;8.93;;;22.30;46.70;;;;;;5072151;28;20503;-63
2024/03/28 03:44:45;;;;;;;12.57;9.55;;;22.30;46.70;;;;;;5071032;28;20053;-62
2024/03/28 03:47:10;;;;;;;11.93;9.27;;;22.30;46.70;;;;;;5070626;28;20086;-62
2024/03/28 03:49:37;;;;;;;12.93;9.50;;;22.30;46.80;;;;;;5071116;28;20071;-62
2024/03/28 03:52:04;;;;;;;12.98;9.60;;;22.20;46.80;;;;;;5071739;28;20028;-63
2024/03/28 03:54:29;;;;;;;12.40;9.43;;;22.20;46.80;;;;;;5071965;28;20392;-63
2024/03/28 03:56:55;;;;;;;12.23;9.30;;;22.20;46.80;;;;;;5071537;28;20029;-64
2024/03/28 03:59:21;;;;;;;12.88;9.45;;;22.20;46.80;;;;;;5070067;28;20637;-64
2024/03/28 04:01:47;;;;;;;12.05;8.93;;;22.20;46.90;;;;;;5071785;28;20149;-64
2024/03/28 04:04:13;;;;;;;12.35;9.30;;;22.20;46.90;;;;;;5071097;28;20070;-63
2024/03/28 04:06:39;;;;;;;11.68;8.93;;;22.10;46.80;;;;;;5071293;28;20056;-64
2024/03/28 04:09:04;;;;;;;11.68;9.07;;;22.10;46.90;;;;;;5071508;28;20028;-64
2024/03/28 04:11:30;;;;;;;11.13;8.43;;;22.10;46.90;;;;;;5071602;28;20388;-64
2024/03/28 04:13:56;;;;;;;11.68;8.98;;;22.10;46.90;;;;;;5070223;28;20108;-64
2024/03/28 04:16:21;;;;;;;10.93;8.60;;;22.10;46.90;;;;;;5071186;28;20107;-64
2024/03/28 04:18:47;;;;;;;10.65;8.27;;;22.10;46.90;;;;;;5071217;28;20476;-63
2024/03/28 04:21:12;;;;;;;9.88;7.90;;;22.10;46.90;;;;;;5070873;28;20035;-63
2024/03/28 04:23:38;;;;;;;10.35;8.50;;;22.10;46.90;;;;;;5071391;28;20078;-63
2024/03/28 04:26:03;;;;;;;9.73;7.65;;;22.10;47.00;;;;;;5071055;28;20103;-63
2024/03/28 04:28:29;;;;;;;10.48;8.00;;;22.10;47.00;;;;;;5069691;28;20040;-63
2024/03/28 04:30:55;;;;;;;9.75;7.68;;;22.10;47.00;;;;;;5069966;28;20031;-64
2024/03/28 04:33:20;;;;;;;9.73;7.50;;;22.00;47.00;;;;;;5070819;28;20424;-63
2024/03/28 04:35:46;;;;;;;10.52;8.02;;;22.00;46.90;;;;;;5070548;28;20030;-63
2024/03/28 04:38:12;;;;;;;9.88;7.57;;;22.00;47.00;;;;;;5071014;28;20115;-64
2024/03/28 04:40:38;;;;;;;9.45;7.03;;;22.00;46.90;;;;;;5070664;28;20029;-63
2024/03/28 04:43:04;;;;;;;9.45;7.15;;;22.00;47.00;;;;;;5070362;28;20102;-64
2024/03/28 04:45:29;;;;;;;9.88;7.45;;;22.00;47.00;;;;;;5069752;28;20064;-64
2024/03/28 04:47:55;;;;;;;9.70;7.10;;;22.00;47.00;;;;;;5070419;28;20111;-63
2024/03/28 04:50:21;;;;;;;8.50;6.72;;;21.90;47.00;;;;;;5070360;28;20058;-62
2024/03/28 04:52:47;;;;;;;9.30;7.15;;;22.00;47.00;;;;;;5070461;28;20024;-63
2024/03/28 04:55:13;;;;;;;8.75;7.22;;;21.90;47.00;;;;;;5070366;28;20117;-63
2024/03/28 04:57:39;;;;;;;9.40;7.00;;;21.90;47.00;;;;;;5070191;28;20115;-63
2024/03/28 05:00:06;;;;;;;9.75;7.22;;;21.90;47.10;;;;;;5069403;28;20405;-66
2024/03/28 05:02:33;;;;;;;9.75;6.97;;;21.90;47.10;;;;;;5070416;28;20033;-67
2024/03/28 05:04:58;;;;;;;8.30;6.63;;;21.90;47.10;;;;;;5069996;28;20028;-66
2024/03/28 05:07:24;;;;;;;9.15;6.90;;;21.90;47.10;;;;;;5070043;28;20419;-66
2024/03/28 05:09:50;;;;;;;8.55;6.85;;;21.90;47.10;;;;;;5069771;28;20029;-66
2024/03/28 05:12:16;;;;;;;8.32;6.72;;;21.90;47.20;;;;;;5070043;28;20095;-66
2024/03/28 05:14:41;;;;;;;8.82;6.80;;;21.90;47.20;;;;;;5068299;28;20542;-66
2024/03/28 05:17:07;;;;;;;8.95;6.65;;;21.80;47.20;;;;;;5070058;28;20032;-67
2024/03/28 05:19:33;;;;;;;8.98;6.57;;;21.80;47.20;;;;;;5069537;28;20103;-66
2024/03/28 05:21:59;;;;;;;8.90;6.75;;;21.80;47.20;;;;;;5070038;28;20498;-66
2024/03/28 05:24:25;;;;;;;8.40;6.47;;;21.80;47.20;;;;;;5069957;28;20021;-66
2024/03/28 05:26:50;;;;;;;8.13;6.30;;;21.80;47.20;;;;;;5069786;28;20063;-66
2024/03/28 05:29:16;;;;;;;8.40;6.15;;;21.80;47.20;;;;;;5068585;28;20040;-67
2024/03/28 05:31:42;;;;;;;7.95;6.25;;;21.80;47.30;;;;;;5051817;28;20062;-66
2024/03/28 05:34:08;;;;;;;8.32;6.18;;;21.80;47.30;;;;;;5069518;28;20484;-66
2024/03/28 05:36:36;;;;;;;7.82;5.82;;;21.80;47.80;;;;;;5069423;28;20017;-66
2024/03/28 05:39:05;;;;;;;8.17;6.27;;;21.80;47.30;;;;;;5069665;28;20032;-66
2024/03/28 05:41:32;;;;;;;7.32;5.70;;;21.80;47.30;;;;;;5069643;28;20273;-67
2024/03/28 05:43:58;;;;;;;7.70;5.63;;;21.80;47.30;;;;;;5069514;28;20433;-65
2024/03/28 05:46:24;;;;;;;7.50;5.65;;;21.70;47.30;;;;;;5067790;28;20396;-66
2024/03/28 05:48:50;;;;;;;7.85;6.20;;;21.70;47.40;;;;;;5069563;28;20032;-66
2024/03/28 05:51:16;;;;;;;6.72;5.10;;;21.70;47.40;;;;;;5069159;28;20878;-67
2024/03/28 05:53:45;;;;;;;7.57;5.72;;;21.70;47.40;;;;;;5069308;28;20459;-66
2024/03/28 05:56:12;;;;;;;7.38;5.32;;;21.70;47.40;;;;;;5069009;28;20385;-66
2024/03/28 05:58:37;;;;;;;7.70;5.47;;;21.70;47.40;;;;;;5069165;28;20128;-65
2024/03/28 06:01:04;;;;;;;7.25;5.63;;;21.70;47.40;;;;;;5068221;28;20215;-64
2024/03/28 06:03:30;;;;;;;7.40;5.70;;;21.70;47.40;;;;;;5069269;28;20032;-64
2024/03/28 06:05:55;;;;;;;7.22;5.60;;;21.70;47.40;;;;;;5068840;28;20032;-64
2024/03/28 06:08:21;;;;;;;7.25;5.68;;;21.70;47.50;;;;;;5069039;28;20434;-64
2024/03/28 06:10:47;;;;;;;6.57;4.97;;;21.70;47.50;;;;;;5069468;28;20111;-67
2024/03/28 06:13:12;;;;;;;7.05;5.38;;;21.70;47.50;;;;;;5068990;28;20043;-67
2024/03/28 06:15:38;;;;;;;7.03;5.07;;;21.70;47.50;;;;;;5067717;28;20111;-66
2024/03/28 06:18:04;;;;;;;6.47;5.07;;;21.60;47.50;;;;;;5068996;28;20036;-66
2024/03/28 06:20:30;;;;;;;6.97;5.38;;;21.60;47.50;;;;;;5068788;28;20023;-66
2024/03/28 06:22:56;;;;;;;6.50;4.90;;;21.60;47.50;;;;;;5069030;28;20028;-66
2024/03/28 06:25:21;;;;;;;6.50;4.70;;;21.60;47.60;;;;;;5068981;28;20029;-67
2024/03/28 06:27:47;;;;;;;6.90;5.15;;;21.60;47.60;;;;;;5067904;28;20733;-66
2024/03/28 06:30:20;;;;;;;6.72;5.00;;;21.60;47.60;;;;;;5068162;28;20020;-64
2024/03/28 06:32:46;;;;;;;6.10;4.90;;;21.60;47.60;;;;;;5068900;28;20027;-64
2024/03/28 06:35:12;;;;;;;6.13;4.72;;;21.60;47.60;;;;;;5068545;28;20028;-64
2024/03/28 06:37:37;;;;;;;6.57;5.07;;;21.60;47.60;;;;;;5068809;28;20365;-64
2024/03/28 06:40:03;;;;;;;6.47;4.80;;;21.60;47.60;;;;;;5068724;28;20036;-64
2024/03/28 06:42:29;;;;;;;6.40;4.88;;;21.60;47.60;;;;;;5069035;28;20146;-64
2024/03/28 06:44:55;;;;;;;6.10;4.47;;;21.60;47.60;;;;;;5067326;28;20036;-64
2024/03/28 06:47:20;;;;;;;6.82;4.82;;;21.60;47.60;;;;;;5068416;28;20035;-64
2024/03/28 06:49:46;;;;;;;6.25;4.63;;;21.60;47.60;;;;;;5068691;28;20060;-64
2024/03/28 06:52:11;;;;;;;5.88;4.75;;;21.60;47.60;;;;;;5068697;28;20040;-64
2024/03/28 06:54:37;;;;;;;6.60;4.70;;;21.60;47.60;;;;;;5068695;28;20500;-64
2024/03/28 06:57:04;;;;;;;6.57;4.72;;;21.60;47.60;;;;;;5068377;28;21147;-64
2024/03/28 06:59:30;;;;;;;6.05;4.55;;;21.50;47.50;;;;;;5068597;28;20021;-64
2024/03/28 07:01:56;;;;;;;6.50;5.28;;;21.50;47.50;;;;;;5067424;28;20146;-64
2024/03/28 07:04:21;;;;;;;6.30;4.57;;;21.50;47.50;;;;;;5068493;28;20035;-64
2024/03/28 07:06:47;;;;;;;5.38;4.25;;;21.50;47.50;;;;;;5057263;28;20055;-64
2024/03/28 07:09:13;;;;;;;5.75;4.57;;;21.50;47.50;;;;;;5068293;28;20033;-64
2024/03/28 07:11:39;;;;;;;5.85;4.45;;;21.50;47.50;;;;;;5068592;28;20028;-66
2024/03/28 07:14:04;;;;;;;5.82;4.55;;;21.50;47.50;;;;;;5068384;28;20044;-66
2024/03/28 07:16:31;;;;;;;6.35;4.50;;;21.50;47.50;;;;;;5067217;28;20048;-66
2024/03/28 07:18:57;;;;;;;5.28;4.03;;;21.50;47.50;;;;;;5068365;28;20388;-68
2024/03/28 07:21:22;;;;;;;6.28;4.70;;;21.50;47.50;;;;;;5068011;28;20027;-66
2024/03/28 07:23:50;;;;;;;5.40;4.32;;;21.50;47.50;;;;;;5068142;28;20031;-64
2024/03/28 07:26:16;;;;;;;6.10;4.53;;;21.50;47.50;;;;;;5068366;28;20021;-66
2024/03/28 07:28:42;;;;;;;5.93;4.38;;;21.50;47.50;;;;;;5067728;28;20036;-66
2024/03/28 07:31:08;;;;;;;5.70;4.20;;;21.50;47.60;;;;;;5066836;28;20146;-66
2024/03/28 07:33:34;;;;;;;5.13;3.83;;;21.50;47.60;;;;;;5068317;28;20392;-66
2024/03/28 07:35:59;;;;;;;6.00;4.10;;;21.50;47.60;;;;;;5068038;28;20020;-66
2024/03/28 07:38:25;;;;;;;6.15;4.10;;;21.50;47.70;;;;;;5069606;28;20028;-66
2024/03/28 07:40:51;;;;;;;4.63;3.60;;;21.50;47.70;;;;;;5071996;28;20103;-65
2024/03/28 07:43:17;;;;;;;5.07;3.78;;;21.50;47.70;;;;;;5071667;28;20056;-66
2024/03/28 07:45:47;;;;;;;4.80;3.80;;;21.50;47.80;;;;;;5070824;28;20040;-65
2024/03/28 07:48:13;;;;;;;4.90;3.80;;;21.50;47.80;;;;;;5071977;28;20140;-66
2024/03/28 07:50:39;;;;;;;5.15;3.60;;;21.50;47.80;;;;;;5071497;28;20142;-66
2024/03/28 07:53:05;;;;;;;4.90;3.67;;;21.50;47.90;;;;;;5071501;28;20472;-65
2024/03/28 07:55:30;;;;;;;4.53;3.20;;;21.40;47.90;;;;;;5071412;28;20020;-66
2024/03/28 07:57:56;;;;;;;4.13;3.10;;;21.50;47.90;;;;;;5071499;28;20033;-66
2024/03/28 08:00:22;;;;;;;5.53;3.88;;;21.50;47.90;;;;;;5070706;28;20071;-66
2024/03/28 08:02:48;;;;;;;4.78;3.33;;;21.50;48.00;;;;;;5071312;28;20131;-66
2024/03/28 08:05:15;;;;;;;5.18;3.72;;;21.50;48.00;;;;;;5071336;28;20519;-66
2024/03/28 08:07:41;;;;;;;5.20;3.40;;;21.40;47.90;;;;;;5070924;28;20472;-66
2024/03/28 08:10:09;;;;;;;4.90;3.50;;;21.40;47.90;;;;;;5071205;28;20032;-66
2024/03/28 08:12:35;;;;;;;4.65;3.38;;;21.40;47.90;;;;;;5071234;28;20031;-66
2024/03/28 08:15:02;;;;;;;4.55;3.40;;;21.40;47.90;;;;;;5071169;28;20547;-66
2024/03/28 08:17:28;;;;;;;4.50;3.40;;;21.40;47.90;;;;;;5069903;28;20488;-66
2024/03/28 08:19:54;;;;;;;4.50;3.38;;;21.40;47.90;;;;;;5071162;28;20063;-63
2024/03/28 08:22:21;;;;;;;4.50;3.20;;;21.40;47.90;;;;;;5061992;28;20460;-64
2024/03/28 08:24:47;;;;;;;4.75;3.45;;;21.40;47.90;;;;;;5070861;28;20031;-64
2024/03/28 08:27:13;;;;;;;4.45;3.10;;;21.40;48.00;;;;;;5070625;28;20086;-63
2024/03/28 08:29:39;;;;;;;4.32;3.17;;;21.40;48.00;;;;;;5070385;28;20036;-63
2024/03/28 08:32:05;;;;;;;5.10;3.53;;;21.40;48.00;;;;;;5070025;28;20024;-63
2024/03/28 08:34:31;;;;;;;4.70;3.28;;;21.40;48.00;;;;;;5070916;28;20110;-64
2024/03/28 08:36:57;;;;;;;3.97;3.00;;;21.40;48.00;;;;;;5070872;28;20112;-64
2024/03/28 08:39:24;;;;;;;4.57;3.30;;;21.40;48.00;;;;;;5070395;28;20115;-64
2024/03/28 08:41:52;;;;;;;4.13;3.17;;;21.40;48.00;;;;;;5070439;28;20055;-63
2024/03/28 08:44:18;;;;;;;4.33;3.00;;;21.40;48.00;;;;;;5070627;28;20411;-63
2024/03/28 08:46:44;;;;;;;4.45;3.10;;;21.40;48.60;;;;;;5069740;28;20028;-63
2024/03/28 08:49:09;;;;;;;4.75;3.20;;;21.40;48.10;;;;;;5069802;28;20028;-63
2024/03/28 08:51:36;;;;;;;4.22;3.08;;;21.40;48.10;;;;;;5070241;28;20017;-64
2024/03/28 08:54:05;;;;;;;4.53;3.22;;;21.40;48.10;;;;;;5070269;28;20032;-63
2024/03/28 08:56:31;;;;;;;4.35;3.20;;;21.40;48.10;;;;;;5070693;28;20028;-64
2024/03/28 08:58:58;;;;;;;4.13;3.10;;;21.40;48.10;;;;;;5070353;28;20028;-64
2024/03/28 09:01:24;;;;;;;4.07;2.92;;;21.40;48.20;;;;;;5068765;28;20032;-61
2024/03/28 09:03:52;;;;;;;5.38;3.20;;;21.40;48.20;;;;;;5070440;28;20062;-64
2024/03/28 09:06:19;;;;;;;4.53;2.90;;;21.40;48.20;;;;;;5069699;28;20036;-61
2024/03/28 09:08:46;;;;;;;4.47;3.00;;;21.30;48.20;;;;;;5069985;28;20036;-63
2024/03/28 09:11:12;;;;;;;4.10;2.92;;;21.40;48.20;;;;;;5070348;28;20521;-63
2024/03/28 09:13:38;;;;;;;4.30;3.03;;;21.30;48.20;;;;;;5070169;28;20051;-63
2024/03/28 09:16:06;;;;;;;4.18;2.70;;;21.40;48.30;;;;;;5068798;28;20025;-63
2024/03/28 09:18:33;;;;;;;4.30;3.05;;;21.40;48.30;;;;;;5069906;28;20127;-63
2024/03/28 09:21:00;;;;;;;5.35;3.28;;;21.30;48.20;;;;;;5070036;28;20472;-64
2024/03/28 09:23:26;;;;;;;4.35;2.95;;;21.30;48.20;;;;;;5069053;28;20064;-63
2024/03/28 09:25:52;;;;;;;4.38;2.72;;;21.40;48.30;;;;;;5070020;28;20064;-64
2024/03/28 09:28:18;;;;;;;4.18;3.08;;;21.40;48.30;;;;;;5051789;28;20056;-63
2024/03/28 09:30:44;;;;;;;4.22;2.75;;;21.30;48.30;;;;;;5069755;28;20021;-64
2024/03/28 09:33:11;;;;;;;3.35;2.50;;;21.30;48.30;;;;;;5068552;28;20468;-64
2024/03/28 09:35:36;;;;;;;4.13;2.90;;;21.30;48.30;;;;;;5069740;28;20021;-64
2024/03/28 09:38:03;;;;;;;4.28;2.70;;;21.30;48.30;;;;;;5069331;28;20039;-64
2024/03/28 09:40:30;;;;;;;4.03;2.60;;;21.30;48.40;;;;;;5069596;28;20078;-63
2024/03/28 09:42:57;;;;;;;3.72;2.72;;;21.30;48.40;;;;;;5069598;28;20037;-64
2024/03/28 09:45:27;;;;;;;3.97;2.70;;;21.30;48.40;;;;;;5069439;28;20032;-63
2024/03/28 09:47:54;;;;;;;4.20;2.70;;;21.30;48.40;;;;;;5067842;28;20158;-64
2024/03/28 09:50:23;;;;;;;4.00;2.60;;;21.30;48.40;;;;;;5069674;28;20016;-63
2024/03/28 09:52:52;;;;;;;4.22;2.83;;;21.30;48.40;;;;;;5069215;28;20035;-64
2024/03/28 09:55:17;;;;;;;4.07;2.60;;;21.30;48.40;;;;;;5052282;28;20032;-64
2024/03/28 09:57:43;;;;;;;3.90;2.60;;;21.30;48.40;;;;;;5069317;28;20040;-64
2024/03/28 10:00:12;;;;;;;3.97;2.72;;;21.30;48.40;;;;;;5069313;28;20545;-64
2024/03/28 10:02:40;;;;;;;5.15;2.95;;;21.30;48.40;;;;;;5049382;28;20113;-63
2024/03/28 10:05:06;;;;;;;3.97;2.67;;;21.30;48.50;;;;;;5068851;28;20025;-64
2024/03/28 10:07:32;;;;;;;3.90;2.50;;;21.30;48.40;;;;;;5068237;28;20035;-64
2024/03/28 10:09:59;;;;;;;4.40;2.65;;;21.30;48.50;;;;;;5068908;28;20028;-63
2024/03/28 10:12:24;;;;;;;3.70;2.50;;;21.30;48.50;;;;;;5069127;28;20032;-62
2024/03/28 10:14:54;;;;;;;3.88;2.20;;;21.20;48.50;;;;;;5068849;28;20547;-64
2024/03/28 10:17:20;;;;;;;4.60;2.60;;;21.30;48.50;;;;;;5067558;28;20017;-62
2024/03/28 10:20:07;;;;;;;3.88;2.40;;;21.30;48.50;;;;;;5068947;28;20031;-62
2024/03/28 10:22:41;;;;;;;3.70;2.50;;;21.30;48.50;;;;;;5068057;28;20060;-63
2024/03/28 10:25:17;;;;;;;4.30;2.40;;;21.30;48.50;;;;;;5068830;28;20035;-62
2024/03/28 10:27:43;;;;;;;3.70;2.53;;;21.30;48.50;;;;;;5068756;28;20025;-62
2024/03/28 10:30:11;;;;;;;3.13;2.10;;;21.20;48.50;;;;;;5068845;28;20029;-62
2024/03/28 10:32:37;;;;;;;3.30;2.30;;;21.20;48.50;;;;;;5067442;28;20040;-62
2024/03/28 10:35:09;;;;;;;3.65;2.10;;;21.30;48.50;;;;;;5068850;28;20036;-62
2024/03/28 10:37:34;;;;;;;3.47;2.35;;;21.30;48.50;;;;;;5068059;28;20443;-61
2024/03/28 10:40:00;;;;;;;3.55;2.05;;;21.30;48.50;;;;;;5068778;28;20020;-64
2024/03/28 10:42:29;;;;;;;3.47;2.35;;;21.20;48.40;;;;;;5068607;28;20123;-66
2024/03/28 10:44:59;;;;;;;3.10;2.10;;;21.20;48.40;;;;;;5068262;28;20396;-66
2024/03/28 10:47:29;;;;;;;3.28;2.10;;;21.20;48.40;;;;;;5067263;28;20128;-66
2024/03/28 10:50:07;;;;;;;3.65;2.40;;;21.20;48.50;;;;;;5068432;28;20486;-66
2024/03/28 10:52:41;;;;;;;3.60;2.38;;;21.20;48.50;;;;;;5067706;28;20140;-65
2024/03/28 10:55:08;;;;;;;3.60;2.20;;;21.30;48.50;;;;;;5068303;28;20036;-64
2024/03/28 10:57:34;;;;;;;3.50;2.40;;;21.30;48.50;;;;;;5068285;28;20115;-65
2024/03/28 11:00:00;;;;;;;3.72;2.40;;;21.20;48.40;;;;;;5068492;28;20487;-64
2024/03/28 11:02:29;;;;;;;3.50;2.30;;;21.20;48.50;;;;;;5067190;28;20035;-65
2024/03/28 11:04:55;;;;;;;3.42;2.20;;;21.20;48.60;;;;;;5068535;28;20506;-65
2024/03/28 11:07:21;;;;;;;3.40;2.25;;;21.30;48.80;;;;;;5068122;28;20133;-65
2024/03/28 11:09:49;;;;;;;3.67;2.17;;;21.20;49.00;;;;;;5068379;28;20029;-64
2024/03/28 11:12:16;;;;;;;4.10;2.72;;;21.20;48.90;;;;;;5068334;28;20111;-63
2024/03/28 11:15:00;;;;;;;3.97;2.30;;;21.30;49.00;;;;;;5071586;28;20032;-64
2024/03/28 11:17:26;;;;;;;3.50;2.15;;;21.30;49.10;;;;;;5070109;28;20028;-64
2024/03/28 11:20:02;;;;;;;3.55;2.25;;;21.30;49.20;;;;;;5071787;28;20925;-65
2024/03/28 11:22:30;;;;;;;3.13;2.10;;;21.30;49.20;;;;;;5071729;28;20025;-64
2024/03/28 11:24:56;;;;;;;3.65;2.30;;;21.30;49.20;;;;;;5072292;28;20029;-64
2024/03/28 11:27:22;;;;;;;3.13;2.00;;;21.20;49.10;;;;;;5072480;28;20032;-64
2024/03/28 11:29:49;;;;;;;3.33;2.38;;;21.30;49.30;;;;;;5072201;28;20465;-64
2024/03/28 11:32:22;;;;;;;3.28;2.10;;;21.30;49.30;;;;;;5071136;28;20112;-64
2024/03/28 11:34:49;;;;;;;3.55;2.00;;;21.20;49.30;;;;;;5072085;28;20081;-64
2024/03/28 11:37:21;;;;;;;3.65;2.30;;;21.30;49.40;;;;;;5052417;28;20546;-64
2024/03/28 11:39:47;;;;;;;3.08;2.00;;;21.30;49.40;;;;;;5071828;28;20484;-64
2024/03/28 11:42:21;;;;;;;3.33;2.13;;;21.20;49.30;;;;;;5071550;28;20139;-64
2024/03/28 11:44:46;;;;;;;3.40;2.15;;;21.30;49.40;;;;;;5071721;28;20032;-64
2024/03/28 11:47:22;;;;;;;3.30;2.10;;;21.20;49.40;;;;;;5070721;28;20055;-64
2024/03/28 11:49:48;;;;;;;3.92;2.25;;;21.20;49.30;;;;;;5070760;28;20033;-65
2024/03/28 11:52:15;;;;;;;4.05;1.98;;;21.20;49.30;;;;;;5071863;28;20438;-64
2024/03/28 11:54:41;;;;;;;3.63;2.00;;;21.20;49.20;;;;;;5070935;28;20028;-64
2024/03/28 11:57:07;;;;;;;3.35;2.08;;;21.20;49.20;;;;;;5070149;28;20025;-64
2024/03/28 11:59:33;;;;;;;3.42;2.20;;;21.30;49.20;;;;;;5071464;28;20112;-64
2024/03/28 12:02:02;;;;;;;3.08;1.92;;;21.20;49.10;;;;;;5071534;28;20095;-62
2024/03/28 12:04:29;;;;;;;2.40;1.77;;;21.30;49.10;;;;;;5069946;28;20503;-63
2024/03/28 12:06:59;;;;;;;2.80;1.70;;;21.20;49.00;;;;;;5071301;28;20399;-62
2024/03/28 12:09:25;;;;;;;3.00;1.90;;;21.20;49.00;;;;;;5070938;28;20044;-64
2024/03/28 12:11:55;;;;;;;2.58;1.65;;;21.20;49.00;;;;;;5071404;28;20155;-63
2024/03/28 12:14:21;;;;;;;3.10;1.85;;;21.20;48.90;;;;;;5071322;28;20029;-62
2024/03/28 12:16:47;;;;;;;2.88;1.70;;;21.20;48.80;;;;;;5071312;28;20048;-62
2024/03/28 12:19:23;;;;;;;2.60;1.70;;;21.20;48.80;;;;;;5070273;28;20068;-61
2024/03/28 12:21:50;;;;;;;3.30;2.00;;;21.20;48.70;;;;;;5071026;28;20043;-63
2024/03/28 12:24:16;;;;;;;2.78;1.80;;;21.20;48.70;;;;;;5069399;28;20037;-62
2024/03/28 12:26:42;;;;;;;2.50;1.60;;;21.20;48.70;;;;;;5071373;28;20114;-63
2024/03/28 12:29:08;;;;;;;3.08;1.92;;;21.20;48.60;;;;;;5070645;28;20503;-63
2024/03/28 12:31:34;;;;;;;3.65;1.63;;;21.20;48.60;;;;;;5071040;28;20484;-67
2024/03/28 12:34:09;;;;;;;3.53;1.70;;;21.20;48.60;;;;;;5070127;28;20150;-64
2024/03/28 12:36:35;;;;;;;2.92;1.90;;;21.20;48.80;;;;;;5070685;28;20021;-65
2024/03/28 12:39:00;;;;;;;2.78;1.85;;;21.20;48.80;;;;;;5070029;28;20029;-64
2024/03/28 12:41:26;;;;;;;2.67;1.70;;;21.20;48.80;;;;;;5058951;28;20119;-64
2024/03/28 12:44:03;;;;;;;3.15;1.75;;;21.30;48.80;;;;;;5070894;28;20028;-64